Time;durP1;ratioP1;P1;durP2;ratioP2;P2;SDS_P1;SDS_P2;PMS_P1;PMS_P2;Temp;Humidity;BMP_temperature;BMP_pressure;BME280_temperature;BME280_humidity;BME280_pressure;Samples;Min_cycle;Max_cycle;Signal;HPM_P1;HPM_P2
2023/12/16 00:02:25;;;;;;;1.52;0.80;;;7.10;1.00;;;;;;5008945;28;20052;-73
2023/12/16 00:04:52;;;;;;;1.40;0.77;;;7.10;1.00;;;;;;5045064;28;20049;-73
2023/12/16 00:07:19;;;;;;;1.67;0.80;;;7.10;1.00;;;;;;5041136;28;20152;-73
2023/12/16 00:09:46;;;;;;;1.45;0.80;;;7.10;1.00;;;;;;5023448;28;20049;-73
2023/12/16 00:12:13;;;;;;;1.90;0.70;;;7.10;11.50;;;;;;5043116;28;20414;-73
2023/12/16 00:14:40;;;;;;;0.98;0.60;;;7.10;27.70;;;;;;5026679;28;20077;-73
2023/12/16 00:17:07;;;;;;;2.20;0.63;;;7.10;67.60;;;;;;5041847;28;20126;-73
2023/12/16 00:19:34;;;;;;;2.22;0.98;;;7.10;99.90;;;;;;5026643;28;20056;-73
2023/12/16 00:22:00;;;;;;;1.17;0.77;;;7.20;99.90;;;;;;5043832;28;20437;-73
2023/12/16 00:24:28;;;;;;;1.92;0.65;;;7.20;99.90;;;;;;5041514;28;20122;-74
2023/12/16 00:26:55;;;;;;;1.48;0.77;;;7.20;99.90;;;;;;5022557;28;20489;-73
2023/12/16 00:29:22;;;;;;;1.05;0.90;;;7.30;99.90;;;;;;5008440;28;20059;-73
2023/12/16 00:31:48;;;;;;;1.55;1.35;;;7.30;99.90;;;;;;5042857;28;20110;-74
2023/12/16 00:34:15;;;;;;;1.48;0.52;;;7.30;99.90;;;;;;5010124;28;20076;-73
2023/12/16 00:36:42;;;;;;;0.95;0.50;;;7.30;99.90;;;;;;5043566;28;20051;-73
2023/12/16 00:39:09;;;;;;;1.30;0.50;;;7.30;99.90;;;;;;5009861;28;20067;-73
2023/12/16 00:41:37;;;;;;;2.20;0.77;;;7.30;99.90;;;;;;5009286;28;20052;-73
2023/12/16 00:44:04;;;;;;;1.00;0.75;;;7.30;99.90;;;;;;5009674;28;20145;-73
2023/12/16 00:46:31;;;;;;;1.65;0.70;;;7.30;99.90;;;;;;4992363;28;20240;-73
2023/12/16 00:48:58;;;;;;;1.58;0.75;;;7.30;99.90;;;;;;4993598;28;20473;-73
2023/12/16 00:51:25;;;;;;;2.33;0.88;;;7.30;99.90;;;;;;5044029;28;20102;-74
2023/12/16 00:53:52;;;;;;;1.42;0.88;;;7.30;99.90;;;;;;5010134;28;20114;-73
2023/12/16 00:56:18;;;;;;;1.30;0.70;;;7.30;99.90;;;;;;5043314;28;20041;-74
2023/12/16 00:58:49;;;;;;;1.75;0.75;;;7.20;1.00;;;;;;5043705;28;20045;-74
2023/12/16 01:01:16;;;;;;;1.40;0.80;;;7.30;1.80;;;;;;5024004;28;20542;-73
2023/12/16 01:03:43;;;;;;;2.20;0.80;;;7.30;99.90;;;;;;5022124;28;20311;-73
2023/12/16 01:06:10;;;;;;;2.50;0.88;;;7.30;99.90;;;;;;5005975;28;20057;-73
2023/12/16 01:08:36;;;;;;;2.65;0.98;;;7.30;99.90;;;;;;5008139;28;20057;-73
2023/12/16 01:11:03;;;;;;;1.60;1.20;;;7.40;1.00;;;;;;5009189;28;20045;-73
2023/12/16 01:13:31;;;;;;;1.55;0.90;;;7.40;1.00;;;;;;5009846;28;20062;-74
2023/12/16 01:15:58;;;;;;;1.42;0.80;;;7.40;14.20;;;;;;5041769;28;20122;-73
2023/12/16 01:18:24;;;;;;;1.00;0.70;;;7.50;1.00;;;;;;5025087;28;20049;-73
2023/12/16 01:20:51;;;;;;;2.35;0.80;;;7.50;27.70;;;;;;5026023;28;20060;-73
2023/12/16 01:23:18;;;;;;;1.13;0.80;;;7.50;47.00;;;;;;5025574;28;20045;-75
2023/12/16 01:25:45;;;;;;;1.35;0.75;;;7.50;99.90;;;;;;5025437;28;20388;-73
2023/12/16 01:28:12;;;;;;;1.17;0.45;;;7.50;99.90;;;;;;5033645;28;20049;-74
2023/12/16 01:30:39;;;;;;;1.58;0.82;;;7.50;99.90;;;;;;5014458;28;20085;-73
2023/12/16 01:33:06;;;;;;;1.67;0.80;;;7.50;99.90;;;;;;5004873;28;20255;-73
2023/12/16 01:35:32;;;;;;;1.35;0.82;;;7.60;1.00;;;;;;5006025;28;20050;-73
2023/12/16 01:37:59;;;;;;;2.42;0.82;;;7.60;1.00;;;;;;5016088;28;20044;-73
2023/12/16 01:40:26;;;;;;;1.00;0.55;;;7.70;1.00;;;;;;5007318;28;20147;-74
2023/12/16 01:42:55;;;;;;;1.60;0.85;;;7.70;1.00;;;;;;5023041;28;20145;-73
2023/12/16 01:45:22;;;;;;;2.70;0.93;;;7.70;1.00;;;;;;5025306;28;20465;-73
2023/12/16 01:47:49;;;;;;;1.30;0.80;;;7.80;1.00;;;;;;5023706;28;20055;-73
2023/12/16 01:50:16;;;;;;;3.35;1.00;;;7.90;99.90;;;;;;5009248;28;20128;-73
2023/12/16 01:52:44;;;;;;;1.70;0.80;;;8.00;99.90;;;;;;5025526;28;20514;-73
2023/12/16 01:55:10;;;;;;;2.28;1.42;;;8.00;99.90;;;;;;5025979;28;20122;-73
2023/12/16 01:57:37;;;;;;;2.03;0.98;;;8.00;99.90;;;;;;5012317;28;20171;-73
2023/12/16 02:00:05;;;;;;;1.80;0.90;;;8.10;85.00;;;;;;4997382;28;20057;-73
2023/12/16 02:02:32;;;;;;;2.35;0.85;;;8.10;96.80;;;;;;5011289;28;20108;-73
2023/12/16 02:04:58;;;;;;;2.88;1.13;;;8.20;99.90;;;;;;5029503;28;20138;-73
2023/12/16 02:07:25;;;;;;;1.85;0.80;;;8.20;99.90;;;;;;5012145;28;20152;-73
2023/12/16 02:09:53;;;;;;;1.70;0.98;;;8.30;99.90;;;;;;5029684;28;20045;-73
2023/12/16 02:12:19;;;;;;;2.33;1.05;;;8.30;99.90;;;;;;5012491;28;20045;-73
2023/12/16 02:14:47;;;;;;;2.13;1.00;;;8.30;99.90;;;;;;5028735;28;20080;-74
2023/12/16 02:17:14;;;;;;;2.28;0.90;;;8.40;99.90;;;;;;5010235;28;20061;-73
2023/12/16 02:19:40;;;;;;;2.20;1.00;;;8.40;93.30;;;;;;5012694;28;20133;-73
2023/12/16 02:22:07;;;;;;;1.63;0.80;;;8.40;54.20;;;;;;4996344;28;20061;-73
2023/12/16 02:24:36;;;;;;;2.78;0.90;;;8.50;88.00;;;;;;5046377;28;20096;-73
2023/12/16 02:27:04;;;;;;;1.45;0.80;;;8.50;99.90;;;;;;4996042;28;20064;-73
2023/12/16 02:29:30;;;;;;;2.13;1.00;;;8.50;95.60;;;;;;5046872;28;20056;-73
2023/12/16 02:31:57;;;;;;;1.48;0.80;;;8.60;99.00;;;;;;5013767;28;20053;-73
2023/12/16 02:34:24;;;;;;;2.35;0.95;;;8.60;1.00;;;;;;5030947;28;20148;-73
2023/12/16 02:36:51;;;;;;;3.03;0.82;;;8.70;1.00;;;;;;5011576;28;20046;-73
2023/12/16 02:39:17;;;;;;;2.50;1.25;;;8.70;1.00;;;;;;4996782;28;20052;-74
2023/12/16 02:41:44;;;;;;;2.28;0.98;;;8.70;1.00;;;;;;5012233;28;20134;-73
2023/12/16 02:44:11;;;;;;;3.00;0.93;;;8.70;1.00;;;;;;5047009;28;20539;-73
2023/12/16 02:46:38;;;;;;;2.55;1.00;;;8.70;1.00;;;;;;4994601;28;20118;-73
2023/12/16 02:49:04;;;;;;;2.15;1.00;;;8.80;1.00;;;;;;5046134;28;20082;-73
2023/12/16 02:51:32;;;;;;;2.70;1.00;;;8.80;1.00;;;;;;5046533;28;20060;-73
2023/12/16 02:53:59;;;;;;;1.75;0.85;;;8.80;1.00;;;;;;5045962;28;20068;-73
2023/12/16 02:56:25;;;;;;;1.55;0.88;;;8.80;18.40;;;;;;5028991;28;20360;-73
2023/12/16 02:58:52;;;;;;;1.42;1.00;;;8.80;1.00;;;;;;5029050;28;20056;-74
2023/12/16 03:01:19;;;;;;;1.90;1.13;;;8.80;23.20;;;;;;5027224;28;20049;-73
2023/12/16 03:03:46;;;;;;;2.25;1.08;;;8.80;95.50;;;;;;4996120;28;20049;-73
2023/12/16 03:06:13;;;;;;;1.08;0.70;;;8.80;99.90;;;;;;5027811;28;20384;-73
2023/12/16 03:08:40;;;;;;;1.80;0.90;;;8.80;24.40;;;;;;5028234;28;20128;-74
2023/12/16 03:11:07;;;;;;;1.55;0.88;;;8.80;96.40;;;;;;5045850;28;20049;-73
2023/12/16 03:13:33;;;;;;;1.05;0.80;;;8.80;99.90;;;;;;5046022;28;20114;-74
2023/12/16 03:16:00;;;;;;;1.65;0.75;;;8.80;99.90;;;;;;5044863;28;20057;-73
2023/12/16 03:18:27;;;;;;;1.02;0.73;;;8.80;99.90;;;;;;5011466;28;20491;-73
2023/12/16 03:20:54;;;;;;;3.38;1.10;;;8.80;99.90;;;;;;5046067;28;20049;-73
2023/12/16 03:23:21;;;;;;;3.00;0.80;;;8.80;1.00;;;;;;5045659;28;20097;-74
2023/12/16 03:25:48;;;;;;;1.42;0.70;;;8.80;1.00;;;;;;5028696;28;20053;-73
2023/12/16 03:28:15;;;;;;;1.48;0.98;;;8.80;1.00;;;;;;5045595;28;20053;-74
2023/12/16 03:30:42;;;;;;;0.98;0.65;;;8.80;1.00;;;;;;5045244;28;20554;-73
2023/12/16 03:33:08;;;;;;;1.95;1.05;;;8.80;1.00;;;;;;5026327;28;20505;-73
2023/12/16 03:35:35;;;;;;;0.82;0.60;;;8.80;3.20;;;;;;5028184;28;20533;-73
2023/12/16 03:38:02;;;;;;;1.45;0.65;;;8.80;99.90;;;;;;5027193;28;20045;-73
2023/12/16 03:40:29;;;;;;;1.10;0.70;;;8.80;99.90;;;;;;5027560;28;20049;-73
2023/12/16 03:42:58;;;;;;;1.02;0.63;;;8.90;99.90;;;;;;5045440;28;20072;-73
2023/12/16 03:45:24;;;;;;;1.05;0.65;;;8.90;99.90;;;;;;5047162;28;20472;-73
2023/12/16 03:47:51;;;;;;;1.02;0.60;;;8.90;99.90;;;;;;5046278;28;20441;-73
2023/12/16 03:50:18;;;;;;;0.68;0.50;;;8.90;99.90;;;;;;5030016;28;20072;-73
2023/12/16 03:52:45;;;;;;;1.10;0.70;;;9.00;99.90;;;;;;5029778;28;20090;-73
2023/12/16 03:55:12;;;;;;;0.65;0.60;;;8.90;99.90;;;;;;5013454;28;20065;-73
2023/12/16 03:57:39;;;;;;;1.02;0.60;;;9.00;1.00;;;;;;5012547;28;20496;-73
2023/12/16 04:00:08;;;;;;;0.82;0.52;;;9.00;90.80;;;;;;5029666;28;20048;-73
2023/12/16 04:02:35;;;;;;;1.23;0.88;;;9.00;99.90;;;;;;5045571;28;20055;-73
2023/12/16 04:05:02;;;;;;;0.80;0.50;;;9.00;99.90;;;;;;5029370;28;20059;-73
2023/12/16 04:07:29;;;;;;;0.40;0.40;;;9.00;99.90;;;;;;5029044;28;20057;-74
2023/12/16 04:09:56;;;;;;;0.98;0.70;;;9.10;99.90;;;;;;5029395;28;20053;-73
2023/12/16 04:12:22;;;;;;;0.98;0.70;;;9.10;99.90;;;;;;5028913;28;20048;-73
2023/12/16 04:14:49;;;;;;;0.88;0.50;;;9.10;99.90;;;;;;5029509;28;20127;-73
2023/12/16 04:17:16;;;;;;;0.95;0.50;;;9.10;99.90;;;;;;5026786;28;20045;-73
2023/12/16 04:19:50;;;;;;;0.88;0.52;;;9.10;99.90;;;;;;5046289;28;20111;-73
2023/12/16 04:22:17;;;;;;;0.68;0.55;;;9.10;1.00;;;;;;5028659;28;20045;-73
2023/12/16 04:24:44;;;;;;;0.82;0.70;;;9.20;1.00;;;;;;5012682;28;20416;-73
2023/12/16 04:27:11;;;;;;;1.60;0.50;;;9.20;1.00;;;;;;5028502;28;20044;-73
2023/12/16 04:29:39;;;;;;;0.98;0.43;;;9.20;1.00;;;;;;5029534;28;20539;-73
2023/12/16 04:32:06;;;;;;;0.43;0.32;;;9.30;1.00;;;;;;5044935;28;20057;-73
2023/12/16 04:34:32;;;;;;;0.88;0.43;;;9.30;99.90;;;;;;5012912;28;20060;-73
2023/12/16 04:36:59;;;;;;;0.73;0.40;;;9.30;1.00;;;;;;5046300;28;20045;-73
2023/12/16 04:39:26;;;;;;;0.40;0.40;;;9.30;1.00;;;;;;4996401;28;20103;-74
2023/12/16 04:41:53;;;;;;;1.33;0.45;;;9.40;1.00;;;;;;5046124;28;20389;-74
2023/12/16 04:44:20;;;;;;;0.47;0.40;;;9.40;28.30;;;;;;5028692;28;20495;-73
2023/12/16 04:46:46;;;;;;;0.30;0.30;;;9.40;73.80;;;;;;5026850;28;20055;-73
2023/12/16 04:49:13;;;;;;;0.60;0.47;;;9.40;99.90;;;;;;5028858;28;20056;-73
2023/12/16 04:51:40;;;;;;;0.43;0.20;;;9.50;99.90;;;;;;5027814;28;20055;-73
2023/12/16 04:54:07;;;;;;;0.65;0.52;;;9.50;99.90;;;;;;5012412;28;20132;-73
2023/12/16 04:56:34;;;;;;;0.55;0.40;;;9.60;1.00;;;;;;4995679;28;20041;-73
2023/12/16 04:59:01;;;;;;;0.55;0.40;;;9.60;26.50;;;;;;5011872;28;20098;-74
2023/12/16 05:01:28;;;;;;;0.28;0.28;;;9.60;80.40;;;;;;5044913;28;20045;-73
2023/12/16 05:03:55;;;;;;;0.40;0.40;;;9.60;99.90;;;;;;5028297;28;20045;-73
2023/12/16 05:06:22;;;;;;;1.73;0.32;;;9.70;99.90;;;;;;5028135;28;20091;-73
2023/12/16 05:08:48;;;;;;;0.40;0.40;;;9.70;99.90;;;;;;5011947;28;20052;-73
2023/12/16 05:11:15;;;;;;;0.20;0.20;;;9.70;97.00;;;;;;5045619;28;20539;-73
2023/12/16 05:13:43;;;;;;;0.68;0.40;;;9.80;93.50;;;;;;5046224;28;20057;-73
2023/12/16 05:16:10;;;;;;;0.57;0.40;;;9.80;70.90;;;;;;5044373;28;20605;-73
2023/12/16 05:18:36;;;;;;;0.50;0.40;;;9.80;99.90;;;;;;5027767;28;20164;-73
2023/12/16 05:21:04;;;;;;;1.17;0.60;;;9.80;24.20;;;;;;5028192;28;20049;-73
2023/12/16 05:23:30;;;;;;;0.93;0.50;;;9.90;1.00;;;;;;5045920;28;20056;-74
2023/12/16 05:25:57;;;;;;;0.40;0.40;;;9.80;1.00;;;;;;5028081;28;20076;-73
2023/12/16 05:28:24;;;;;;;0.55;0.50;;;9.90;6.30;;;;;;5046038;28;20056;-73
2023/12/16 05:30:51;;;;;;;0.40;0.40;;;9.90;1.00;;;;;;5048343;28;20056;-73
2023/12/16 05:33:18;;;;;;;0.50;0.38;;;9.90;1.00;;;;;;5031252;28;20099;-73
2023/12/16 05:35:45;;;;;;;0.30;0.30;;;9.90;99.90;;;;;;5016000;28;20061;-73
2023/12/16 05:38:12;;;;;;;0.77;0.25;;;9.90;99.90;;;;;;5050027;28;20048;-73
2023/12/16 05:40:39;;;;;;;0.30;0.30;;;9.90;99.90;;;;;;5050175;28;20398;-73
2023/12/16 05:43:07;;;;;;;1.30;0.30;;;10.00;99.90;;;;;;5031126;28;20080;-73
2023/12/16 05:45:34;;;;;;;0.75;0.30;;;9.90;99.90;;;;;;5049261;28;20457;-73
2023/12/16 05:48:01;;;;;;;0.52;0.30;;;10.00;99.90;;;;;;4992708;28;20071;-74
2023/12/16 05:50:28;;;;;;;0.38;0.25;;;10.00;99.90;;;;;;4994310;28;20060;-73
2023/12/16 05:52:55;;;;;;;1.00;0.40;;;10.00;35.90;;;;;;5027685;28;20284;-73
2023/12/16 05:55:21;;;;;;;0.73;0.60;;;10.00;70.80;;;;;;5028196;28;20093;-73
2023/12/16 05:57:48;;;;;;;0.35;0.35;;;10.00;99.90;;;;;;4995835;28;20457;-73
2023/12/16 06:00:15;;;;;;;0.50;0.40;;;10.00;99.90;;;;;;5013685;28;20084;-73
2023/12/16 06:02:42;;;;;;;0.60;0.52;;;10.10;99.90;;;;;;5042142;28;20488;-73
2023/12/16 06:05:09;;;;;;;0.55;0.30;;;10.00;99.90;;;;;;5026329;28;20049;-73
2023/12/16 06:07:36;;;;;;;0.32;0.30;;;10.10;99.90;;;;;;5043669;28;20060;-73
2023/12/16 06:10:04;;;;;;;0.28;0.28;;;10.10;99.90;;;;;;5043351;28;20075;-73
2023/12/16 06:12:33;;;;;;;0.40;0.38;;;10.10;99.90;;;;;;5042952;28;20068;-73
2023/12/16 06:15:00;;;;;;;0.40;0.40;;;10.10;99.90;;;;;;5025738;28;20081;-74
2023/12/16 06:17:27;;;;;;;0.40;0.30;;;10.20;99.90;;;;;;5023902;28;20052;-74
2023/12/16 06:19:54;;;;;;;0.50;0.40;;;10.10;99.90;;;;;;5042449;28;20056;-74
2023/12/16 06:22:21;;;;;;;0.75;0.52;;;10.10;99.90;;;;;;5009315;28;20055;-73
2023/12/16 06:24:48;;;;;;;0.65;0.45;;;10.10;99.90;;;;;;5025024;28;20048;-73
2023/12/16 06:27:14;;;;;;;0.30;0.30;;;10.10;99.90;;;;;;5008952;28;20053;-74
2023/12/16 06:29:41;;;;;;;0.38;0.38;;;10.10;99.90;;;;;;5026708;28;20057;-73
2023/12/16 06:32:08;;;;;;;0.60;0.43;;;10.10;99.90;;;;;;5044004;28;20134;-73
2023/12/16 06:34:35;;;;;;;1.13;0.40;;;10.10;1.00;;;;;;5028837;28;20523;-73
2023/12/16 06:37:02;;;;;;;0.40;0.40;;;10.10;97.80;;;;;;5043352;28;20055;-73
2023/12/16 06:39:29;;;;;;;0.60;0.50;;;10.20;99.90;;;;;;5025473;28;20342;-73
2023/12/16 06:41:56;;;;;;;0.75;0.43;;;10.10;99.90;;;;;;4989173;28;20050;-74
2023/12/16 06:44:24;;;;;;;0.32;0.30;;;10.10;99.90;;;;;;5009029;28;20118;-74
2023/12/16 06:46:50;;;;;;;0.32;0.30;;;10.20;99.90;;;;;;5008052;28;20122;-74
2023/12/16 06:49:17;;;;;;;0.70;0.60;;;10.20;99.90;;;;;;5046032;28;20056;-73
2023/12/16 06:51:44;;;;;;;0.93;0.68;;;10.20;99.90;;;;;;5045073;28;20083;-74
2023/12/16 06:54:11;;;;;;;0.65;0.60;;;10.20;99.90;;;;;;5024599;28;20055;-73
2023/12/16 06:56:38;;;;;;;0.43;0.43;;;10.20;99.90;;;;;;5008434;28;20199;-74
2023/12/16 06:59:05;;;;;;;0.30;0.30;;;10.20;99.90;;;;;;5043298;28;20103;-74
2023/12/16 07:01:31;;;;;;;0.50;0.35;;;10.20;99.90;;;;;;5023788;28;20135;-74
2023/12/16 07:03:58;;;;;;;0.55;0.50;;;10.20;99.90;;;;;;5024568;28;20140;-74
2023/12/16 07:06:26;;;;;;;0.30;0.30;;;10.20;99.90;;;;;;5025617;28;20418;-74
2023/12/16 07:08:52;;;;;;;0.47;0.40;;;10.20;99.90;;;;;;5011496;28;20122;-73
2023/12/16 07:11:20;;;;;;;0.57;0.40;;;10.20;1.00;;;;;;5027915;28;20048;-74
2023/12/16 07:13:47;;;;;;;0.50;0.50;;;10.30;1.00;;;;;;5027971;28;20053;-74
2023/12/16 07:16:16;;;;;;;0.60;0.50;;;10.20;1.00;;;;;;5043140;28;20217;-74
2023/12/16 07:18:43;;;;;;;0.40;0.40;;;10.30;1.00;;;;;;5023787;28;20136;-74
2023/12/16 07:21:10;;;;;;;0.40;0.40;;;10.30;99.90;;;;;;5042148;28;20052;-73
2023/12/16 07:23:37;;;;;;;0.77;0.50;;;10.30;1.00;;;;;;5007214;28;20510;-73
2023/12/16 07:26:04;;;;;;;0.40;0.40;;;10.30;1.00;;;;;;5019603;28;20102;-74
2023/12/16 07:28:30;;;;;;;0.20;0.20;;;10.30;1.00;;;;;;5020321;28;20051;-74
2023/12/16 07:30:58;;;;;;;0.35;0.30;;;10.30;1.00;;;;;;5022261;28;20060;-73
2023/12/16 07:33:25;;;;;;;0.68;0.57;;;10.30;1.00;;;;;;5039288;28;20040;-75
2023/12/16 07:35:53;;;;;;;0.40;0.40;;;10.40;1.00;;;;;;5040044;28;20055;-76
2023/12/16 07:38:21;;;;;;;0.30;0.30;;;10.40;99.90;;;;;;5022142;28;20128;-76
2023/12/16 07:40:48;;;;;;;0.55;0.40;;;10.40;99.90;;;;;;5023676;28;20469;-73
2023/12/16 07:43:14;;;;;;;0.43;0.40;;;10.50;99.90;;;;;;5024184;28;20048;-73
2023/12/16 07:45:41;;;;;;;0.30;0.30;;;10.50;99.90;;;;;;5003152;28;20054;-73
2023/12/16 07:48:08;;;;;;;0.47;0.47;;;10.50;99.90;;;;;;5008724;28;20154;-73
2023/12/16 07:50:35;;;;;;;1.00;0.57;;;10.50;99.90;;;;;;5042347;28;20045;-73
2023/12/16 07:53:02;;;;;;;0.52;0.47;;;10.50;99.90;;;;;;5038927;28;20052;-73
2023/12/16 07:55:29;;;;;;;0.28;0.28;;;10.60;99.90;;;;;;5042319;28;20133;-73
2023/12/16 07:57:56;;;;;;;0.45;0.45;;;10.60;99.90;;;;;;5023244;28;20076;-73
2023/12/16 08:00:23;;;;;;;0.32;0.32;;;10.60;99.90;;;;;;5014281;28;20051;-74
2023/12/16 08:02:50;;;;;;;0.30;0.30;;;10.60;99.90;;;;;;5005427;28;20053;-74
2023/12/16 08:05:18;;;;;;;0.40;0.30;;;10.60;99.90;;;;;;5012176;28;20151;-73
2023/12/16 08:07:46;;;;;;;0.30;0.30;;;10.60;99.90;;;;;;5033145;28;20053;-73
2023/12/16 08:10:13;;;;;;;0.40;0.40;;;10.60;99.90;;;;;;5000344;28;20421;-73
2023/12/16 08:12:40;;;;;;;0.30;0.30;;;10.60;99.90;;;;;;5019350;28;20044;-74
2023/12/16 08:15:08;;;;;;;0.40;0.40;;;10.60;99.90;;;;;;5032182;28;20055;-73
2023/12/16 08:17:35;;;;;;;0.32;0.32;;;10.60;1.00;;;;;;5019761;28;20060;-73
2023/12/16 08:20:04;;;;;;;0.43;0.43;;;10.60;1.00;;;;;;5018828;28;20045;-73
2023/12/16 08:22:31;;;;;;;0.40;0.40;;;10.60;1.00;;;;;;5003121;28;20052;-73
2023/12/16 08:24:58;;;;;;;1.58;0.50;;;10.70;1.00;;;;;;4969962;28;20057;-73
2023/12/16 08:27:25;;;;;;;0.40;0.40;;;10.60;1.00;;;;;;4999400;28;20056;-73
2023/12/16 08:29:51;;;;;;;0.65;0.50;;;10.60;1.00;;;;;;4969098;28;20072;-73
2023/12/16 08:32:18;;;;;;;0.77;0.40;;;10.60;1.00;;;;;;4998886;28;20659;-73
2023/12/16 08:34:45;;;;;;;0.98;0.68;;;10.70;1.00;;;;;;4998749;28;20160;-73
2023/12/16 08:37:12;;;;;;;0.55;0.55;;;10.70;1.00;;;;;;4982545;28;20104;-73
2023/12/16 08:39:39;;;;;;;0.50;0.50;;;10.70;1.00;;;;;;5009778;28;20046;-73
2023/12/16 08:42:05;;;;;;;0.80;0.50;;;10.70;99.90;;;;;;5011431;28;20065;-73
2023/12/16 08:44:32;;;;;;;1.05;0.60;;;10.70;99.90;;;;;;5018401;28;20411;-73
2023/12/16 08:47:00;;;;;;;0.40;0.40;;;10.70;99.90;;;;;;5010127;28;20050;-73
2023/12/16 08:49:26;;;;;;;0.60;0.60;;;10.70;99.90;;;;;;5000711;28;20381;-73
2023/12/16 08:51:56;;;;;;;0.45;0.32;;;10.70;48.20;;;;;;5001349;28;20131;-73
2023/12/16 08:54:23;;;;;;;0.30;0.30;;;10.80;71.10;;;;;;4999376;28;20052;-73
2023/12/16 08:56:50;;;;;;;0.40;0.40;;;10.80;1.00;;;;;;5008006;28;20077;-73
2023/12/16 08:59:17;;;;;;;0.30;0.30;;;10.80;99.90;;;;;;5002955;28;20107;-73
2023/12/16 09:01:48;;;;;;;0.50;0.50;;;10.80;99.90;;;;;;5014487;28;21454;-73
2023/12/16 09:04:14;;;;;;;0.47;0.47;;;10.80;75.90;;;;;;5019376;28;20125;-73
2023/12/16 09:06:43;;;;;;;0.40;0.40;;;10.90;1.00;;;;;;5000203;28;20337;-73
2023/12/16 09:09:11;;;;;;;0.30;0.30;;;10.90;99.90;;;;;;5016878;28;20361;-75
2023/12/16 09:11:40;;;;;;;0.38;0.38;;;10.90;99.90;;;;;;4996104;28;20296;-75
2023/12/16 09:14:07;;;;;;;0.40;0.40;;;10.90;99.90;;;;;;4997159;28;20049;-75
2023/12/16 09:16:34;;;;;;;0.47;0.40;;;10.90;95.40;;;;;;5013344;28;20065;-74
2023/12/16 09:19:03;;;;;;;0.70;0.50;;;10.90;1.00;;;;;;4985978;28;20130;-75
2023/12/16 09:21:30;;;;;;;0.28;0.28;;;10.90;1.00;;;;;;4986406;28;20056;-75
2023/12/16 09:23:57;;;;;;;0.40;0.40;;;11.00;1.00;;;;;;5012414;28;20068;-74
2023/12/16 09:26:25;;;;;;;0.25;0.25;;;11.00;99.90;;;;;;5021525;28;20072;-75
2023/12/16 09:28:52;;;;;;;0.30;0.30;;;11.00;99.90;;;;;;5021367;28;20142;-74
2023/12/16 09:31:19;;;;;;;0.55;0.55;;;11.10;1.00;;;;;;5015869;28;20458;-75
2023/12/16 09:33:46;;;;;;;0.45;0.38;;;11.10;99.90;;;;;;5033764;28;20068;-75
2023/12/16 09:36:13;;;;;;;0.57;0.40;;;11.10;99.90;;;;;;5037322;28;20406;-75
2023/12/16 09:38:41;;;;;;;0.28;0.28;;;11.20;1.00;;;;;;5019355;28;20139;-75
2023/12/16 09:41:23;;;;;;;0.40;0.40;;;11.20;99.90;;;;;;4988556;28;20045;-75
2023/12/16 09:43:52;;;;;;;0.30;0.30;;;11.20;99.90;;;;;;5016089;28;20055;-75
2023/12/16 09:46:20;;;;;;;0.30;0.30;;;11.20;99.90;;;;;;5002049;28;20111;-75
2023/12/16 09:48:47;;;;;;;0.30;0.30;;;11.20;1.00;;;;;;5019044;28;20146;-75
2023/12/16 09:51:13;;;;;;;0.73;0.38;;;11.20;74.60;;;;;;4986423;28;20069;-75
2023/12/16 09:53:40;;;;;;;0.47;0.47;;;11.20;1.00;;;;;;5017647;28;20045;-74
2023/12/16 09:56:09;;;;;;;0.68;0.38;;;11.30;1.00;;;;;;5037050;28;20048;-73
2023/12/16 09:58:36;;;;;;;0.40;0.40;;;11.20;86.10;;;;;;5001431;28;20107;-73
2023/12/16 10:01:03;;;;;;;0.30;0.30;;;11.30;95.40;;;;;;5013015;28;20480;-73
2023/12/16 10:03:29;;;;;;;0.43;0.40;;;11.30;55.10;;;;;;5000865;28;20053;-73
2023/12/16 10:05:56;;;;;;;0.55;0.50;;;11.40;99.90;;;;;;5002065;28;20474;-73
2023/12/16 10:08:23;;;;;;;0.50;0.50;;;11.40;1.00;;;;;;5018872;28;20063;-73
2023/12/16 10:10:57;;;;;;;0.30;0.30;;;11.40;99.90;;;;;;5035830;28;20119;-73
2023/12/16 10:13:55;;;;;;;0.52;0.40;;;11.50;99.90;;;;;;5004949;28;20045;-73
2023/12/16 10:16:22;;;;;;;0.20;0.20;;;11.50;1.00;;;;;;5000831;28;20053;-73
2023/12/16 10:18:50;;;;;;;0.20;0.20;;;11.50;1.00;;;;;;5039955;28;20478;-73
2023/12/16 10:21:24;;;;;;;0.32;0.20;;;11.50;1.00;;;;;;5022753;28;20323;-73
2023/12/16 10:24:02;;;;;;;0.30;0.30;;;11.60;1.00;;;;;;5021756;28;20575;-73
2023/12/16 10:26:30;;;;;;;0.35;0.30;;;11.60;1.00;;;;;;5021676;28;20049;-73
2023/12/16 10:28:57;;;;;;;0.28;0.28;;;11.60;99.90;;;;;;5022277;28;20049;-73
2023/12/16 10:31:26;;;;;;;0.40;0.25;;;11.60;99.90;;;;;;5020594;28;20446;-73
2023/12/16 10:33:53;;;;;;;0.20;0.20;;;11.60;99.90;;;;;;5019480;28;20136;-73
2023/12/16 10:36:20;;;;;;;0.60;0.50;;;11.70;99.90;;;;;;5021414;28;20044;-73
2023/12/16 10:38:47;;;;;;;0.45;0.30;;;11.70;99.90;;;;;;5021739;28;20049;-73
2023/12/16 10:41:14;;;;;;;0.30;0.30;;;11.70;1.00;;;;;;5039346;28;20040;-73
2023/12/16 10:43:41;;;;;;;0.25;0.25;;;11.80;1.00;;;;;;5005530;28;20059;-73
2023/12/16 10:46:08;;;;;;;0.40;0.40;;;11.80;99.90;;;;;;4984091;28;20462;-73
2023/12/16 10:48:36;;;;;;;0.32;0.32;;;11.80;99.90;;;;;;4988747;28;20151;-73
2023/12/16 10:51:04;;;;;;;0.30;0.30;;;11.80;1.00;;;;;;5021341;28;20196;-74
2023/12/16 10:54:00;;;;;;;0.30;0.25;;;11.80;99.90;;;;;;5039411;28;20148;-73
2023/12/16 10:56:30;;;;;;;0.30;0.30;;;11.80;99.90;;;;;;5005191;28;20060;-73
2023/12/16 10:59:11;;;;;;;0.52;0.40;;;11.80;99.90;;;;;;5021189;28;20227;-73
2023/12/16 11:01:39;;;;;;;0.40;0.40;;;11.80;99.90;;;;;;5020684;28;20080;-73
2023/12/16 11:04:39;;;;;;;0.30;0.30;;;11.80;99.90;;;;;;5020117;28;20041;-73
2023/12/16 11:07:09;;;;;;;0.20;0.20;;;11.80;99.90;;;;;;4999814;28;20115;-73
2023/12/16 11:09:36;;;;;;;0.55;0.52;;;11.80;99.90;;;;;;5004628;28;20052;-73
2023/12/16 11:12:04;;;;;;;0.30;0.30;;;11.90;99.90;;;;;;5005000;28;20309;-73
2023/12/16 11:14:34;;;;;;;0.50;0.40;;;12.00;99.90;;;;;;4989386;28;20514;-79
2023/12/16 11:17:20;;;;;;;0.30;0.30;;;12.10;43.70;;;;;;5003682;28;20130;-78
2023/12/16 11:20:02;;;;;;;0.30;0.30;;;12.20;42.80;;;;;;5007838;28;20045;-76
2023/12/16 11:22:29;;;;;;;0.43;0.38;;;12.20;1.00;;;;;;5004868;28;20481;-73
2023/12/16 11:24:56;;;;;;;0.47;0.40;;;12.20;1.00;;;;;;4985909;28;20056;-76
2023/12/16 11:27:24;;;;;;;0.20;0.20;;;12.20;1.00;;;;;;5019499;28;20053;-79
2023/12/16 11:29:51;;;;;;;0.30;0.30;;;12.20;1.00;;;;;;5021036;28;20060;-76
2023/12/16 11:32:18;;;;;;;0.15;0.15;;;12.30;1.00;;;;;;5019211;28;20060;-80
2023/12/16 11:34:49;;;;;;;0.43;0.43;;;12.30;1.00;;;;;;5003143;28;20057;-74
2023/12/16 11:37:35;;;;;;;0.30;0.28;;;12.40;1.00;;;;;;5021339;28;20060;-74
2023/12/16 11:40:04;;;;;;;0.30;0.30;;;12.40;1.00;;;;;;5039474;28;20148;-76
2023/12/16 11:42:52;;;;;;;0.20;0.20;;;12.30;1.00;;;;;;5004666;28;20215;-76
2023/12/16 11:45:42;;;;;;;0.43;0.35;;;12.30;1.00;;;;;;4991630;28;20517;-76
2023/12/16 11:48:15;;;;;;;0.52;0.40;;;12.30;1.00;;;;;;5000150;28;20061;-75
2023/12/16 11:50:46;;;;;;;0.30;0.30;;;12.40;1.00;;;;;;5035252;28;20359;-73
2023/12/16 11:53:15;;;;;;;0.30;0.30;;;12.30;1.00;;;;;;5038060;28;20049;-76
2023/12/16 11:55:42;;;;;;;0.17;0.17;;;12.40;1.00;;;;;;5002630;28;20132;-75
2023/12/16 11:58:10;;;;;;;0.30;0.30;;;12.40;1.00;;;;;;5001676;28;20718;-75
2023/12/16 12:00:36;;;;;;;0.20;0.20;;;12.50;1.00;;;;;;5003729;28;20060;-75
2023/12/16 12:03:03;;;;;;;0.30;0.30;;;12.40;1.00;;;;;;5034956;28;20517;-75
2023/12/16 12:05:33;;;;;;;0.30;0.30;;;12.30;1.00;;;;;;5021351;28;20204;-75
2023/12/16 12:08:00;;;;;;;0.30;0.30;;;12.40;1.00;;;;;;4987690;28;20048;-75
2023/12/16 12:10:27;;;;;;;0.30;0.30;;;12.40;1.00;;;;;;5021066;28;20132;-75
2023/12/16 12:12:54;;;;;;;0.20;0.20;;;12.40;1.00;;;;;;5003429;28;20053;-75
2023/12/16 12:15:21;;;;;;;0.20;0.20;;;12.40;1.00;;;;;;5020173;28;20049;-75
2023/12/16 12:17:49;;;;;;;1.55;0.40;;;12.40;1.00;;;;;;5002703;28;20071;-75
2023/12/16 12:20:17;;;;;;;0.35;0.30;;;12.40;1.00;;;;;;5005457;28;20417;-75
2023/12/16 12:22:44;;;;;;;0.55;0.30;;;12.50;1.00;;;;;;4987501;28;20481;-74
2023/12/16 12:25:16;;;;;;;0.28;0.28;;;12.40;1.00;;;;;;5020925;28;20055;-75
2023/12/16 12:27:48;;;;;;;0.45;0.35;;;12.40;1.00;;;;;;5005760;28;20489;-75
2023/12/16 12:30:17;;;;;;;0.30;0.30;;;12.40;1.00;;;;;;5004134;28;20169;-75
2023/12/16 12:32:44;;;;;;;0.20;0.20;;;12.50;1.00;;;;;;4987792;28;20460;-75
2023/12/16 12:35:13;;;;;;;0.20;0.20;;;12.50;1.00;;;;;;5036491;28;20045;-74
2023/12/16 12:37:42;;;;;;;0.30;0.30;;;12.50;1.00;;;;;;5021199;28;20442;-75
2023/12/16 12:40:13;;;;;;;0.45;0.40;;;12.40;1.00;;;;;;5019913;28;20351;-74
2023/12/16 12:42:54;;;;;;;0.80;0.40;;;12.40;1.00;;;;;;5037417;28;20056;-74
2023/12/16 12:45:28;;;;;;;0.35;0.30;;;12.40;1.00;;;;;;5019951;28;20409;-74
2023/12/16 12:47:55;;;;;;;0.65;0.40;;;12.40;1.00;;;;;;5002991;28;20403;-75
2023/12/16 12:50:25;;;;;;;0.38;0.30;;;12.40;1.00;;;;;;5019775;28;20436;-75
2023/12/16 12:52:52;;;;;;;0.35;0.30;;;12.50;1.00;;;;;;5019755;28;20049;-75
2023/12/16 12:55:43;;;;;;;0.82;0.55;;;12.50;1.00;;;;;;5038025;28;20045;-75
2023/12/16 12:58:13;;;;;;;0.35;0.35;;;12.50;1.00;;;;;;5020765;28;20140;-74
2023/12/16 13:00:52;;;;;;;0.43;0.40;;;12.50;1.00;;;;;;5006121;28;20067;-74